James Turecamo — WDC7565 — position and weather

sailwx.info

Track history (hours):
 
Tides and Currents Weather Stations Pressure Air Temp Water Temp Dewpoint Dewpoint Depression Visibility Wind Speed Wind Dir Waves Ship Positions

James Turecamo

Owner: Moran Towing Corporation, New Canaan, CT. More information available from US FCC via Universal Licensing System and Coast Guard Vessel Documentation Center.

Last reported at 2016-Feb-13 14:14 UTC. Time now 2016-Feb-13 19:30 UTC.
Position N 40°38' W 074°12'.

Length 27 m; draft 4.5 m.

Type: Tug. MMSI: 367073380.

Date/timePositionNaut miles runAvg speedWind from/ knotsBaromVisibWave heightAir tempDewpointWater temp
2016-Feb-13 14:14N 40°38' W 074°12'3 4.3
2016-Feb-13 13:33N 40°38' W 074°08'1 0.8
2016-Feb-13 12:33N 40°39' W 074°07'1 0.8
2016-Feb-13 11:33N 40°38' W 074°08'0 0.0
2016-Feb-13 10:32N 40°38' W 074°08'0 0.0
2016-Feb-13 09:33N 40°38' W 074°08'0 0.0
2016-Feb-13 08:33N 40°38' W 074°08'0 0.0
2016-Feb-13 07:33N 40°38' W 074°08'2 2.5
2016-Feb-13 06:33N 40°39' W 074°11'1 0.4
2016-Feb-13 04:32N 40°38' W 074°12'0 0.1
2016-Feb-12 21:06N 40°38' W 074°12'3 6.2
2016-Feb-12 20:33N 40°38' W 074°08'0 0.0
2016-Feb-12 19:33N 40°38' W 074°08'0 0.0
2016-Feb-12 18:34N 40°38' W 074°08'0 0.0
2016-Feb-12 17:32N 40°38' W 074°08'1 1.2
2016-Feb-12 16:33N 40°39' W 074°09'4 4.4
2016-Feb-12 15:33N 40°38' W 074°03'5 0.4
2016-Feb-12 02:15N 40°39' W 074°10'2 1.1
2016-Feb-12 00:19N 40°39' W 074°07'3 3.4
2016-Feb-11 23:30N 40°41' W 074°08'1 1.3
2016-Feb-11 22:33N 40°40' W 074°08'2 0.6
2016-Feb-11 19:33N 40°39' W 074°06'1 0.7
2016-Feb-11 17:31N 40°39' W 074°08'2 0.8
2016-Feb-11 14:31N 40°39' W 074°11'7 1.1
2016-Feb-11 07:32N 40°44' W 074°05'3 1.2
2016-Feb-11 05:05N 40°48' W 074°05'2 3.4
2016-Feb-11 04:23N 40°45' W 074°06'1 1.7
2016-Feb-11 03:33N 40°44' W 074°06'1 0.5
2016-Feb-11 01:25N 40°44' W 074°07'5 6.2
2016-Feb-11 00:33N 40°39' W 074°05'2 0.3
2016-Feb-10 18:21N 40°39' W 074°07'3 3.9
2016-Feb-10 17:34N 40°39' W 074°03'3 0.7
2016-Feb-10 12:22N 40°38' W 074°08'1 0.8
2016-Feb-10 11:33N 40°39' W 074°07'1 0.8
2016-Feb-10 10:32N 40°39' W 074°06'0 0.2
2016-Feb-10 09:34N 40°39' W 074°06'1 0.4
2016-Feb-10 06:31N 40°38' W 074°08'3 0.3
2016-Feb-09 21:33N 40°39' W 074°04'3 2.9
2016-Feb-09 20:31N 40°38' W 074°08'2 2.3
2016-Feb-09 19:33N 40°39' W 074°05'1 1.1
2016-Feb-09 18:33N 40°39' W 074°06'2 2.2
2016-Feb-09 17:33N 40°39' W 074°03'3 2.6
2016-Feb-09 16:33N 40°39' W 074°07'1 0.3
2016-Feb-09 14:22N 40°38' W 074°08'6 7.3
2016-Feb-09 13:33N 40°40' W 074°00'6 0.7
2016-Feb-09 05:25N 40°38' W 074°08'3 2.7
2016-Feb-09 04:24N 40°39' W 074°11'3 0.5
2016-Feb-08 23:25N 40°38' W 074°08'0 0.1
2016-Feb-08 19:07N 40°39' W 074°08'2 0.2
2016-Feb-08 12:33N 40°39' W 074°10'2 1.9
2016-Feb-08 11:33N 40°38' W 074°08'0 0.0
2016-Feb-08 07:27N 40°38' W 074°08'0 0.0
2016-Feb-07 18:23N 40°38' W 074°08'1 0.3
2016-Feb-07 14:33N 40°39' W 074°09'1 1.0
2016-Feb-07 13:31N 40°38' W 074°08'4 4.5
2016-Feb-07 12:33N 40°39' W 074°02'1 1.2
2016-Feb-07 11:34N 40°40' W 074°01'5 4.5
2016-Feb-07 10:33N 40°39' W 074°07'1 0.8
2016-Feb-07 09:33N 40°38' W 074°08'0 0.0
2016-Feb-07 08:28N 40°38' W 074°08'0 0.0
2016-Feb-07 07:32N 40°38' W 074°08'0 0.0
2016-Feb-07 06:33N 40°38' W 074°08'0 0.0
2016-Feb-07 05:33N 40°38' W 074°08'0 0.0
2016-Feb-07 04:06N 40°38' W 074°08'4 6.7
2016-Feb-07 03:33N 40°38' W 074°03'1 1.0
2016-Feb-07 02:33N 40°37' W 074°03'1 0.7
2016-Feb-07 01:34N 40°38' W 074°03'1 1.3
2016-Feb-07 00:33N 40°39' W 074°04'3 1.4
2016-Feb-06 22:32N 40°38' W 074°08'3 2.3
2016-Feb-06 21:14N 40°38' W 074°12'3 4.4
2016-Feb-06 20:33N 40°38' W 074°08'0 0.0
2016-Feb-06 19:32N 40°38' W 074°08'0 0.0
2016-Feb-06 18:26N 40°38' W 074°08'0 0.0
2016-Feb-06 17:32N 40°38' W 074°08'0 0.0
2016-Feb-06 16:29N 40°38' W 074°08'0 0.0
2016-Feb-06 15:33N 40°38' W 074°08'0 0.0
2016-Feb-06 14:33N 40°38' W 074°08'0 0.0
2016-Feb-06 13:33N 40°38' W 074°08'0 0.0
2016-Feb-06 12:33N 40°38' W 074°08'0 0.0
2016-Feb-06 11:30N 40°38' W 074°08'0 0.0
2016-Feb-06 10:33N 40°38' W 074°08'0 0.0
2016-Feb-06 09:32N 40°38' W 074°08'0 0.0
2016-Feb-06 08:31N 40°38' W 074°08'0 0.5
2016-Feb-06 07:33N 40°39' W 074°08'2 1.8
2016-Feb-06 06:33N 40°40' W 074°08'2 1.7
2016-Feb-06 05:23N 40°38' W 074°08'0 0.0
2016-Feb-06 04:16N 40°38' W 074°08'0 0.0
2016-Feb-06 03:32N 40°38' W 074°08'0 0.0
2016-Feb-06 02:30N 40°38' W 074°08'0 0.0
2016-Feb-06 01:14N 40°38' W 074°08'1 0.3
2016-Feb-05 22:33N 40°39' W 074°07'1 0.7
2016-Feb-05 21:32N 40°38' W 074°08'0 0.0
2016-Feb-05 20:33N 40°38' W 074°08'0 0.0
2016-Feb-05 18:22N 40°38' W 074°08'0 0.0
2016-Feb-05 17:25N 40°38' W 074°08'2 0.3
2016-Feb-05 11:33N 40°39' W 074°10'2 1.6
2016-Feb-05 10:33N 40°38' W 074°12'2 2.1
2016-Feb-05 09:33N 40°39' W 074°10'5 4.7
2016-Feb-05 08:33N 40°38' W 074°03'3 0.4
2016-Feb-04 23:14N 40°38' W 074°08'0 0.0
2016-Feb-04 22:21N 40°38' W 074°08'0 0.6
2016-Feb-04 21:33N 40°39' W 074°07'4 4.1
2016-Feb-04 20:34N 40°40' W 074°02'0 0.2
2016-Feb-04 19:33N 40°40' W 074°02'0 0.0
2016-Feb-04 18:33N 40°40' W 074°02'0 0.0
2016-Feb-04 17:34N 40°40' W 074°02'0 0.0
2016-Feb-04 16:33N 40°40' W 074°02'4 1.0
2016-Feb-04 12:16N 40°38' W 074°08'1 1.5
2016-Feb-04 11:32N 40°39' W 074°09'0 0.2
2016-Feb-04 10:33N 40°39' W 074°09'2 0.5
2016-Feb-04 05:34N 40°39' W 074°06'5 5.3
2016-Feb-04 04:33N 40°37' W 074°12'2 2.4
2016-Feb-04 03:32N 40°39' W 074°10'2 0.7
2016-Feb-04 00:28N 40°38' W 074°08'1 1.4
2016-Feb-03 23:33N 40°39' W 074°06'1 0.2
2016-Feb-03 18:25N 40°38' W 074°08'3 1.4
2016-Feb-03 16:17N 40°38' W 074°12'5 6.2
2016-Feb-03 15:31N 40°39' W 074°06'2 1.7
2016-Feb-03 14:33N 40°39' W 074°08'  
Track history (hours):
 
Tides and Currents Weather Stations Pressure Air Temp Water Temp Dewpoint Dewpoint Depression Visibility Wind Speed Wind Dir Waves Ship Positions

James Turecamo

Owner: Moran Towing Corporation, New Canaan, CT. More information available from US FCC via Universal Licensing System and Coast Guard Vessel Documentation Center.

Last reported at 2016-Feb-13 14:14 UTC. Time now 2016-Feb-13 19:30 UTC.
Position N 40°38' W 074°12'.

Length 27 m; draft 4.5 m.

Type: Tug. MMSI: 367073380.

Date/timePositionNaut miles runAvg speedWind from/ knotsBaromVisibWave heightAir tempDewpointWater temp
2016-Feb-13 14:14N 40°38' W 074°12'3 4.3
2016-Feb-13 13:33N 40°38' W 074°08'1 0.8
2016-Feb-13 12:33N 40°39' W 074°07'1 0.8
2016-Feb-13 11:33N 40°38' W 074°08'0 0.0
2016-Feb-13 10:32N 40°38' W 074°08'0 0.0
2016-Feb-13 09:33N 40°38' W 074°08'0 0.0
2016-Feb-13 08:33N 40°38' W 074°08'0 0.0
2016-Feb-13 07:33N 40°38' W 074°08'2 2.5
2016-Feb-13 06:33N 40°39' W 074°11'1 0.4
2016-Feb-13 04:32N 40°38' W 074°12'0 0.1
2016-Feb-12 21:06N 40°38' W 074°12'3 6.2
2016-Feb-12 20:33N 40°38' W 074°08'0 0.0
2016-Feb-12 19:33N 40°38' W 074°08'0 0.0
2016-Feb-12 18:34N 40°38' W 074°08'0 0.0
2016-Feb-12 17:32N 40°38' W 074°08'1 1.2
2016-Feb-12 16:33N 40°39' W 074°09'4 4.4
2016-Feb-12 15:33N 40°38' W 074°03'5 0.4
2016-Feb-12 02:15N 40°39' W 074°10'2 1.1
2016-Feb-12 00:19N 40°39' W 074°07'3 3.4
2016-Feb-11 23:30N 40°41' W 074°08'1 1.3
2016-Feb-11 22:33N 40°40' W 074°08'2 0.6
2016-Feb-11 19:33N 40°39' W 074°06'1 0.7
2016-Feb-11 17:31N 40°39' W 074°08'2 0.8
2016-Feb-11 14:31N 40°39' W 074°11'7 1.1
2016-Feb-11 07:32N 40°44' W 074°05'3 1.2
2016-Feb-11 05:05N 40°48' W 074°05'2 3.4
2016-Feb-11 04:23N 40°45' W 074°06'1 1.7
2016-Feb-11 03:33N 40°44' W 074°06'1 0.5
2016-Feb-11 01:25N 40°44' W 074°07'5 6.2
2016-Feb-11 00:33N 40°39' W 074°05'2 0.3
2016-Feb-10 18:21N 40°39' W 074°07'3 3.9
2016-Feb-10 17:34N 40°39' W 074°03'3 0.7
2016-Feb-10 12:22N 40°38' W 074°08'1 0.8
2016-Feb-10 11:33N 40°39' W 074°07'1 0.8
2016-Feb-10 10:32N 40°39' W 074°06'0 0.2
2016-Feb-10 09:34N 40°39' W 074°06'1 0.4
2016-Feb-10 06:31N 40°38' W 074°08'3 0.3
2016-Feb-09 21:33N 40°39' W 074°04'3 2.9
2016-Feb-09 20:31N 40°38' W 074°08'2 2.3
2016-Feb-09 19:33N 40°39' W 074°05'1 1.1
2016-Feb-09 18:33N 40°39' W 074°06'2 2.2
2016-Feb-09 17:33N 40°39' W 074°03'3 2.6
2016-Feb-09 16:33N 40°39' W 074°07'1 0.3
2016-Feb-09 14:22N 40°38' W 074°08'6 7.3
2016-Feb-09 13:33N 40°40' W 074°00'6 0.7
2016-Feb-09 05:25N 40°38' W 074°08'3 2.7
2016-Feb-09 04:24N 40°39' W 074°11'3 0.5
2016-Feb-08 23:25N 40°38' W 074°08'0 0.1
2016-Feb-08 19:07N 40°39' W 074°08'2 0.2
2016-Feb-08 12:33N 40°39' W 074°10'2 1.9
2016-Feb-08 11:33N 40°38' W 074°08'0 0.0
2016-Feb-08 07:27N 40°38' W 074°08'0 0.0
2016-Feb-07 18:23N 40°38' W 074°08'1 0.3
2016-Feb-07 14:33N 40°39' W 074°09'1 1.0
2016-Feb-07 13:31N 40°38' W 074°08'4 4.5
2016-Feb-07 12:33N 40°39' W 074°02'1 1.2
2016-Feb-07 11:34N 40°40' W 074°01'5 4.5
2016-Feb-07 10:33N 40°39' W 074°07'1 0.8
2016-Feb-07 09:33N 40°38' W 074°08'0 0.0
2016-Feb-07 08:28N 40°38' W 074°08'0 0.0
2016-Feb-07 07:32N 40°38' W 074°08'0 0.0
2016-Feb-07 06:33N 40°38' W 074°08'0 0.0
2016-Feb-07 05:33N 40°38' W 074°08'0 0.0
2016-Feb-07 04:06N 40°38' W 074°08'4 6.7
2016-Feb-07 03:33N 40°38' W 074°03'1 1.0
2016-Feb-07 02:33N 40°37' W 074°03'1 0.7
2016-Feb-07 01:34N 40°38' W 074°03'1 1.3
2016-Feb-07 00:33N 40°39' W 074°04'3 1.4
2016-Feb-06 22:32N 40°38' W 074°08'3 2.3
2016-Feb-06 21:14N 40°38' W 074°12'3 4.4
2016-Feb-06 20:33N 40°38' W 074°08'0 0.0
2016-Feb-06 19:32N 40°38' W 074°08'0 0.0
2016-Feb-06 18:26N 40°38' W 074°08'0 0.0
2016-Feb-06 17:32N 40°38' W 074°08'0 0.0
2016-Feb-06 16:29N 40°38' W 074°08'0 0.0
2016-Feb-06 15:33N 40°38' W 074°08'0 0.0
2016-Feb-06 14:33N 40°38' W 074°08'0 0.0
2016-Feb-06 13:33N 40°38' W 074°08'0 0.0
2016-Feb-06 12:33N 40°38' W 074°08'0 0.0
2016-Feb-06 11:30N 40°38' W 074°08'0 0.0
2016-Feb-06 10:33N 40°38' W 074°08'0 0.0
2016-Feb-06 09:32N 40°38' W 074°08'0 0.0
2016-Feb-06 08:31N 40°38' W 074°08'0 0.5
2016-Feb-06 07:33N 40°39' W 074°08'2 1.8
2016-Feb-06 06:33N 40°40' W 074°08'2 1.7
2016-Feb-06 05:23N 40°38' W 074°08'0 0.0
2016-Feb-06 04:16N 40°38' W 074°08'0 0.0
2016-Feb-06 03:32N 40°38' W 074°08'0 0.0
2016-Feb-06 02:30N 40°38' W 074°08'0 0.0
2016-Feb-06 01:14N 40°38' W 074°08'1 0.3
2016-Feb-05 22:33N 40°39' W 074°07'1 0.7
2016-Feb-05 21:32N 40°38' W 074°08'0 0.0
2016-Feb-05 20:33N 40°38' W 074°08'0 0.0
2016-Feb-05 18:22N 40°38' W 074°08'0 0.0
2016-Feb-05 17:25N 40°38' W 074°08'2 0.3
2016-Feb-05 11:33N 40°39' W 074°10'2 1.6
2016-Feb-05 10:33N 40°38' W 074°12'2 2.1
2016-Feb-05 09:33N 40°39' W 074°10'5 4.7
2016-Feb-05 08:33N 40°38' W 074°03'3 0.4
2016-Feb-04 23:14N 40°38' W 074°08'0 0.0
2016-Feb-04 22:21N 40°38' W 074°08'0 0.6
2016-Feb-04 21:33N 40°39' W 074°07'4 4.1
2016-Feb-04 20:34N 40°40' W 074°02'0 0.2
2016-Feb-04 19:33N 40°40' W 074°02'0 0.0
2016-Feb-04 18:33N 40°40' W 074°02'0 0.0
2016-Feb-04 17:34N 40°40' W 074°02'0 0.0
2016-Feb-04 16:33N 40°40' W 074°02'4 1.0
2016-Feb-04 12:16N 40°38' W 074°08'1 1.5
2016-Feb-04 11:32N 40°39' W 074°09'0 0.2
2016-Feb-04 10:33N 40°39' W 074°09'2 0.5
2016-Feb-04 05:34N 40°39' W 074°06'5 5.3
2016-Feb-04 04:33N 40°37' W 074°12'2 2.4
2016-Feb-04 03:32N 40°39' W 074°10'2 0.7
2016-Feb-04 00:28N 40°38' W 074°08'1 1.4
2016-Feb-03 23:33N 40°39' W 074°06'1 0.2
2016-Feb-03 18:25N 40°38' W 074°08'3 1.4
2016-Feb-03 16:17N 40°38' W 074°12'5 6.2
2016-Feb-03 15:31N 40°39' W 074°06'2 1.7
2016-Feb-03 14:33N 40°39' W 074°08'  

Dump ship's entire track history